Time;durP1;ratioP1;P1;durP2;ratioP2;P2;SDS_P1;SDS_P2;PMS_P1;PMS_P2;Temp;Humidity;BMP_temperature;BMP_pressure;BME280_temperature;BME280_humidity;BME280_pressure;Samples;Min_cycle;Max_cycle;Signal;HPM_P1;HPM_P2
2022/10/05 00:01:45;;;;;;;9.77;8.07;;;;;;;14.05;91.38;101695.34;5112004;28;20057;-87
2022/10/05 00:04:20;;;;;;;14.45;8.30;;;;;;;14.05;91.13;101684.75;5109874;28;20031;-88
2022/10/05 00:07:13;;;;;;;11.27;8.27;;;;;;;14.09;91.19;101690.66;5111722;28;20515;-87
2022/10/05 00:09:38;;;;;;;10.23;7.95;;;;;;;14.08;91.29;101686.31;5112512;27;20156;-86
2022/10/05 00:12:19;;;;;;;11.40;8.35;;;;;;;14.06;91.52;101693.53;5112321;28;20476;-86
2022/10/05 00:14:49;;;;;;;11.27;8.75;;;;;;;14.00;91.91;101697.47;5110189;28;20023;-87
2022/10/05 00:17:19;;;;;;;10.13;8.95;;;;;;;13.99;91.97;101684.34;5111538;27;20095;-86
2022/10/05 00:19:50;;;;;;;12.18;8.70;;;;;;;14.04;91.64;101688.38;5112041;28;20015;-86
2022/10/05 00:22:19;;;;;;;12.23;8.95;;;;;;;14.01;92.12;101682.47;5109494;28;20053;-86
2022/10/05 00:24:47;;;;;;;10.45;8.90;;;;;;;13.99;91.83;101671.13;5112262;28;20027;-86
2022/10/05 00:27:20;;;;;;;11.27;8.90;;;;;;;13.99;92.29;101664.03;5112058;28;20027;-86
2022/10/05 00:29:46;;;;;;;14.50;9.13;;;;;;;13.98;92.47;101672.06;5112201;28;20027;-86
2022/10/05 00:32:12;;;;;;;14.35;9.63;;;;;;;13.97;92.44;101676.53;5110538;28;20027;-86
2022/10/05 00:34:38;;;;;;;11.48;9.50;;;;;;;13.95;92.60;101675.78;5112660;28;20480;-86
2022/10/05 00:37:04;;;;;;;11.40;8.98;;;;;;;13.95;92.68;101669.66;5110125;28;20446;-87
2022/10/05 00:39:31;;;;;;;13.98;9.80;;;;;;;13.92;93.04;101662.78;5112090;28;20028;-87
2022/10/05 00:42:25;;;;;;;11.00;9.35;;;;;;;13.97;92.70;101670.38;5111191;28;20486;-86
2022/10/05 00:45:01;;;;;;;11.82;9.23;;;;;;;13.91;93.23;101670.84;5109572;28;20051;-86
2022/10/05 00:47:49;;;;;;;14.43;9.82;;;;;;;13.91;93.06;101666.41;5110073;28;20023;-86
2022/10/05 00:50:47;;;;;;;12.90;9.52;;;;;;;13.92;93.19;101669.91;5109278;28;20032;-87
2022/10/05 00:53:41;;;;;;;11.20;9.35;;;;;;;13.94;93.19;101667.97;5110547;28;20101;-87
2022/10/05 00:56:09;;;;;;;15.45;9.45;;;;;;;13.85;93.38;101664.22;5110853;28;20031;-86
2022/10/05 00:59:08;;;;;;;12.70;10.68;;;;;;;13.86;93.85;101662.41;5110205;28;20036;-86
2022/10/05 01:01:39;;;;;;;14.45;10.35;;;;;;;13.89;93.66;101667.47;5110681;28;20433;-87
2022/10/05 01:04:23;;;;;;;15.30;10.38;;;;;;;13.88;93.57;101666.63;5109417;28;20027;-86
2022/10/05 01:07:13;;;;;;;17.33;10.13;;;;;;;13.86;93.92;101667.72;5098449;28;20032;-87
2022/10/05 01:09:44;;;;;;;13.57;9.95;;;;;;;13.84;93.99;101664.34;5090701;28;20378;-87
2022/10/05 01:12:17;;;;;;;15.18;10.77;;;;;;;13.83;94.02;101655.56;5088165;28;20472;-86
2022/10/05 01:15:00;;;;;;;11.57;10.38;;;;;;;13.85;94.08;101658.09;5089556;28;20020;-87
2022/10/05 01:17:31;;;;;;;14.38;10.35;;;;;;;13.84;94.05;101643.16;5088142;28;20043;-87
2022/10/05 01:20:14;;;;;;;13.18;10.05;;;;;;;13.83;93.91;101628.25;5094922;28;20031;-86
2022/10/05 01:22:59;;;;;;;14.95;10.25;;;;;;;13.88;93.66;101639.34;5110008;28;20544;-87
2022/10/05 01:25:58;;;;;;;13.57;10.40;;;;;;;13.84;93.96;101643.16;5109214;28;20031;-87
2022/10/05 01:28:36;;;;;;;15.75;10.63;;;;;;;13.82;94.21;101630.06;5111241;28;20116;-86
2022/10/05 01:31:14;;;;;;;11.93;10.07;;;;;;;13.83;93.76;101638.84;5110121;28;20051;-86
2022/10/05 01:33:46;;;;;;;12.48;10.38;;;;;;;13.82;93.96;101631.88;5113740;28;20036;-86
2022/10/05 01:36:30;;;;;;;12.95;10.73;;;;;;;13.79;94.09;101635.59;5111398;28;20383;-86
2022/10/05 01:39:23;;;;;;;14.57;10.35;;;;;;;13.82;94.28;101631.88;5113492;28;20020;-86
2022/10/05 01:42:12;;;;;;;15.52;10.38;;;;;;;13.83;94.08;101633.56;5114074;28;20061;-86
2022/10/05 01:44:56;;;;;;;14.52;10.30;;;;;;;13.81;94.25;101623.09;5113709;28;20047;-87
2022/10/05 01:47:32;;;;;;;12.75;10.40;;;;;;;13.80;93.97;101631.97;5109263;28;20097;-86
2022/10/05 01:50:07;;;;;;;16.45;10.52;;;;;;;13.77;94.52;101625.13;5110751;28;20031;-86
2022/10/05 01:52:47;;;;;;;13.95;10.00;;;;;;;13.80;94.21;101614.31;5108805;28;20031;-87
2022/10/05 01:55:25;;;;;;;11.93;10.10;;;;;;;13.80;93.89;101622.25;5108670;28;20118;-86
2022/10/05 01:58:10;;;;;;;12.43;9.75;;;;;;;13.77;94.15;101616.34;5110710;28;20198;-87
2022/10/05 02:01:08;;;;;;;14.93;9.98;;;;;;;13.83;93.93;101609.75;5108579;28;20019;-87
2022/10/05 02:03:49;;;;;;;17.70;10.50;;;;;;;13.78;94.08;101596.88;5076614;28;20054;-85
2022/10/05 02:06:31;;;;;;;15.65;10.27;;;;;;;13.79;93.84;101594.09;5107105;28;20043;-87
2022/10/05 02:09:32;;;;;;;14.02;9.43;;;;;;;13.82;93.99;101597.47;5108112;28;20126;-86
2022/10/05 02:12:02;;;;;;;13.57;10.07;;;;;;;13.75;93.91;101590.00;5054987;28;20031;-87
2022/10/05 02:14:34;;;;;;;12.48;10.05;;;;;;;13.75;94.33;101586.53;5107486;28;20041;-87
2022/10/05 02:17:04;;;;;;;;;;;;;;;13.85;93.03;101582.22;5109211;28;20023;-87
2022/10/05 02:19:38;;;;;;;11.40;10.15;;;;;;;13.73;94.07;101584.00;5105648;28;20302;-87
2022/10/05 02:22:12;;;;;;;17.60;9.77;;;;;;;13.76;93.97;101583.75;5105547;28;20077;-87
2022/10/05 02:24:42;;;;;;;12.65;9.25;;;;;;;13.76;93.88;101586.41;5109826;28;20028;-87
2022/10/05 02:27:12;;;;;;;11.98;9.68;;;;;;;13.77;93.88;101580.16;5109253;28;20023;-87
2022/10/05 02:29:44;;;;;;;13.55;9.30;;;;;;;13.75;93.88;101573.31;5107647;28;20030;-87
2022/10/05 02:32:18;;;;;;;14.48;9.50;;;;;;;13.74;93.78;101575.09;5108109;28;20030;-88
2022/10/05 02:34:43;;;;;;;14.18;9.77;;;;;;;13.74;93.79;101568.97;5109221;28;20032;-86
2022/10/05 02:37:30;;;;;;;12.27;9.10;;;;;;;13.73;94.06;101565.47;5109131;28;20027;-86
2022/10/05 02:40:32;;;;;;;12.45;9.07;;;;;;;13.76;93.91;101562.59;5109339;28;20107;-86
2022/10/05 02:43:26;;;;;;;11.63;9.35;;;;;;;13.77;93.94;101559.00;5108672;28;20071;-86
2022/10/05 02:46:10;;;;;;;12.57;9.45;;;;;;;13.76;93.95;101556.47;5109774;28;20440;-87
2022/10/05 02:48:44;;;;;;;12.05;9.30;;;;;;;13.75;93.77;101539.75;5109772;28;20189;-87
2022/10/05 02:51:27;;;;;;;14.73;9.48;;;;;;;13.74;94.15;101551.28;5108115;28;20029;-87
2022/10/05 02:54:18;;;;;;;11.55;9.35;;;;;;;13.77;94.01;101547.56;5110227;28;20043;-87
2022/10/05 02:57:06;;;;;;;11.73;9.38;;;;;;;13.72;94.15;101545.28;5109503;28;20055;-87
2022/10/05 02:59:42;;;;;;;11.63;9.00;;;;;;;13.70;94.34;101552.50;5108620;28;20027;-87
2022/10/05 03:02:25;;;;;;;12.25;9.65;;;;;;;13.70;94.43;101546.34;5108582;28;20079;-87
2022/10/05 03:05:23;;;;;;;12.00;9.27;;;;;;;13.70;94.38;101531.34;5091788;28;20034;-86
2022/10/05 03:08:05;;;;;;;12.35;8.82;;;;;;;13.65;94.57;101533.50;5089317;28;20032;-87
2022/10/05 03:11:17;;;;;;;12.23;9.43;;;;;;;13.69;94.75;101532.28;5101329;28;20111;-86
2022/10/05 03:13:57;;;;;;;11.63;8.55;;;;;;;13.61;94.65;101534.69;5109584;28;20076;-86
2022/10/05 03:16:38;;;;;;;12.80;8.93;;;;;;;13.63;94.95;101531.94;5108573;28;20020;-86
2022/10/05 03:19:37;;;;;;;14.07;9.38;;;;;;;13.63;94.63;101534.56;5096562;28;20032;-86
2022/10/05 03:22:27;;;;;;;11.40;9.27;;;;;;;13.60;94.82;101525.03;5089468;28;20024;-87
2022/10/05 03:25:04;;;;;;;12.98;9.07;;;;;;;13.57;95.32;101522.63;5087259;28;20028;-86
2022/10/05 03:27:39;;;;;;;11.45;9.10;;;;;;;13.52;95.34;101522.13;5088213;28;20382;-87
2022/10/05 03:30:15;;;;;;;12.63;8.48;;;;;;;13.52;95.68;101532.72;5091243;28;20027;-86
2022/10/05 03:33:18;;;;;;;11.20;9.27;;;;;;;13.54;95.49;101530.78;5091790;28;20040;-86
2022/10/05 03:36:15;;;;;;;11.13;9.32;;;;;;;13.51;95.66;101536.31;5091107;28;20070;-86
2022/10/05 03:39:08;;;;;;;12.57;9.88;;;;;;;13.52;95.59;101524.78;5087005;28;20039;-87
2022/10/05 03:41:33;;;;;;;14.25;9.45;;;;;;;13.52;95.68;101524.78;5091977;28;20024;-86
2022/10/05 03:44:23;;;;;;;11.48;9.15;;;;;;;13.52;95.44;101522.13;5090455;28;20044;-86
2022/10/05 03:46:51;;;;;;;12.48;9.35;;;;;;;13.48;95.70;101526.81;5090265;28;20057;-86
2022/10/05 03:49:49;;;;;;;13.13;9.30;;;;;;;13.52;95.66;101531.88;5090668;28;20028;-86
2022/10/05 03:52:39;;;;;;;12.75;9.35;;;;;;;13.49;95.87;101532.94;5090028;28;20020;-86
2022/10/05 03:55:16;;;;;;;11.57;9.50;;;;;;;13.47;95.99;101524.28;5093102;28;20028;-86
2022/10/05 03:57:43;;;;;;;15.20;9.73;;;;;;;13.44;96.18;101524.53;5093085;28;20055;-86
2022/10/05 04:00:24;;;;;;;15.05;9.93;;;;;;;13.45;96.26;101524.41;5107128;28;20032;-86
2022/10/05 04:03:06;;;;;;;11.13;9.75;;;;;;;13.48;95.78;101531.25;5113151;28;20379;-86
2022/10/05 04:05:45;;;;;;;11.07;9.50;;;;;;;13.43;96.21;101528.97;5113008;27;20024;-86
2022/10/05 04:08:16;;;;;;;13.23;10.57;;;;;;;13.44;96.22;101533.28;5110174;28;20084;-87
2022/10/05 04:10:47;;;;;;;11.68;10.48;;;;;;;13.42;96.04;101537.00;5111733;28;20019;-86
2022/10/05 04:13:20;;;;;;;13.20;10.88;;;;;;;13.44;95.92;101529.81;5112256;28;20023;-86
2022/10/05 04:16:14;;;;;;;13.20;10.25;;;;;;;13.46;95.76;101533.19;5112801;28;20020;-87
2022/10/05 04:18:48;;;;;;;11.40;10.25;;;;;;;13.42;96.01;101532.56;5112980;28;20114;-87
2022/10/05 04:21:20;;;;;;;15.18;11.50;;;;;;;13.43;96.09;101528.97;5111312;28;20062;-86
2022/10/05 04:24:13;;;;;;;17.08;10.95;;;;;;;13.44;96.08;101530.66;5113214;28;20016;-86
2022/10/05 04:26:59;;;;;;;11.52;10.30;;;;;;;13.42;96.06;101527.28;5112779;28;20034;-87
2022/10/05 04:29:51;;;;;;;13.38;10.13;;;;;;;13.42;96.20;101526.44;5110933;28;20020;-86
2022/10/05 04:32:35;;;;;;;13.35;10.50;;;;;;;13.42;96.04;101523.78;5111792;28;20026;-86
2022/10/05 04:35:17;;;;;;;13.55;9.80;;;;;;;13.40;96.35;101513.34;5110127;28;20035;-86
2022/10/05 04:38:02;;;;;;;12.90;10.13;;;;;;;13.41;96.50;101509.72;5112326;27;20024;-87
2022/10/05 04:41:01;;;;;;;11.35;9.40;;;;;;;13.42;96.06;101516.69;5109045;28;20035;-87
2022/10/05 04:43:54;;;;;;;11.75;9.07;;;;;;;13.43;96.23;101512.25;5111069;28;20056;-86
2022/10/05 04:47:02;;;;;;;13.73;9.23;;;;;;;13.47;95.52;101505.78;5110331;28;20027;-87
2022/10/05 04:49:35;;;;;;;12.05;8.82;;;;;;;13.46;95.35;101506.75;5108927;28;20122;-86
2022/10/05 04:52:03;;;;;;;11.25;7.93;;;;;;;13.46;94.58;101496.16;5111196;28;20102;-86
2022/10/05 04:54:38;;;;;;;9.60;8.02;;;;;;;13.49;94.21;101495.94;5109196;28;20286;-85
2022/10/05 04:57:15;;;;;;;12.98;8.07;;;;;;;13.49;94.27;101502.06;5109395;28;20442;-86
2022/10/05 05:00:04;;;;;;;11.45;7.57;;;;;;;13.54;93.89;101493.78;5111186;28;20032;-86
2022/10/05 05:03:07;;;;;;;10.48;7.53;;;;;;;13.54;93.96;101499.06;5109896;28;20224;-86
2022/10/05 05:05:49;;;;;;;;;;;;;;;13.60;93.61;101492.47;5111109;28;20035;-86
2022/10/05 05:08:40;;;;;;;8.95;7.18;;;;;;;13.56;93.31;101501.59;5110751;28;19914;-87
2022/10/05 05:11:38;;;;;;;8.68;7.63;;;;;;;13.58;93.43;101502.31;5110156;28;20027;-87
2022/10/05 05:14:18;;;;;;;7.68;6.97;;;;;;;13.54;93.26;101493.78;5109454;28;20024;-86
2022/10/05 05:16:51;;;;;;;10.38;7.43;;;;;;;13.52;93.57;101492.22;5110516;28;20026;-85
2022/10/05 05:19:19;;;;;;;12.48;7.60;;;;;;;13.52;93.20;101487.75;5108542;28;20391;-86
2022/10/05 05:21:58;;;;;;;9.00;6.82;;;;;;;13.53;93.62;101494.72;5091070;28;20028;-86
2022/10/05 05:24:48;;;;;;;10.15;7.13;;;;;;;13.53;93.32;101492.09;5088949;28;20008;-86
2022/10/05 05:27:37;;;;;;;8.88;6.88;;;;;;;13.54;93.50;101487.66;5090410;28;20107;-87
2022/10/05 05:30:17;;;;;;;8.15;7.28;;;;;;;13.52;93.80;101490.41;5088909;28;20123;-86
2022/10/05 05:33:22;;;;;;;8.95;7.53;;;;;;;13.55;93.56;101495.47;5090951;28;20027;-87
2022/10/05 05:36:30;;;;;;;11.00;7.38;;;;;;;13.53;94.09;101485.97;5089780;28;20365;-86
2022/10/05 05:39:23;;;;;;;10.52;7.45;;;;;;;13.53;93.84;101480.69;5089889;28;20056;-85
2022/10/05 05:42:23;;;;;;;9.68;7.25;;;;;;;13.54;93.93;101477.91;5091035;28;20027;-87
2022/10/05 05:44:55;;;;;;;9.13;7.22;;;;;;;13.48;93.86;101483.66;5089804;28;20431;-86
2022/10/05 05:47:34;;;;;;;7.63;6.53;;;;;;;13.47;94.09;101472.25;5089029;28;20047;-86
2022/10/05 05:50:23;;;;;;;8.68;6.78;;;;;;;13.49;93.48;101469.50;5089204;28;20081;-86
2022/10/05 05:52:54;;;;;;;9.73;7.25;;;;;;;13.47;93.45;101468.78;5090275;28;20022;-86
2022/10/05 05:55:32;;;;;;;11.40;7.25;;;;;;;13.47;93.57;101472.25;5089817;28;20032;-86
2022/10/05 05:58:13;;;;;;;9.27;6.93;;;;;;;13.49;93.54;101472.13;5090420;28;20369;-86
2022/10/05 06:00:48;;;;;;;10.30;6.82;;;;;;;13.46;93.70;101465.28;5089920;28;20415;-86
2022/10/05 06:03:45;;;;;;;9.73;6.70;;;;;;;13.48;93.80;101473.09;5089631;28;20034;-87
2022/10/05 06:06:25;;;;;;;7.53;6.80;;;;;;;13.46;93.73;101464.44;5062756;28;20107;-86
2022/10/05 06:08:55;;;;;;;7.22;6.05;;;;;;;13.46;93.89;101469.72;5088863;28;20032;-86
2022/10/05 06:11:29;;;;;;;8.43;6.30;;;;;;;13.45;93.71;101468.03;5088345;28;20118;-86
2022/10/05 06:14:05;;;;;;;7.18;6.20;;;;;;;13.49;93.79;101474.78;5089220;28;20024;-87
2022/10/05 06:16:37;;;;;;;8.15;6.07;;;;;;;13.46;93.61;101475.00;5089484;28;20066;-86
2022/10/05 06:19:16;;;;;;;9.25;5.72;;;;;;;13.50;93.25;101471.19;5089910;28;20020;-86
2022/10/05 06:22:06;;;;;;;7.25;5.85;;;;;;;13.53;93.03;101470.94;5089242;28;20020;-86
2022/10/05 06:24:39;;;;;;;10.55;5.50;;;;;;;13.51;92.94;101467.56;5089593;28;20030;-87
2022/10/05 06:27:30;;;;;;;6.97;5.43;;;;;;;13.53;93.03;101465.66;5087488;28;20024;-86
2022/10/05 06:30:04;;;;;;;7.82;5.60;;;;;;;13.53;92.89;101464.81;5089921;28;20030;-86
2022/10/05 06:32:30;;;;;;;7.43;5.43;;;;;;;13.52;92.69;101463.97;5089018;28;20036;-86
2022/10/05 06:35:18;;;;;;;8.48;6.00;;;;;;;13.54;92.96;101467.34;5088438;28;20039;-86
2022/10/05 06:38:05;;;;;;;6.20;5.60;;;;;;;13.58;92.94;101463.50;5091078;28;20024;-86
2022/10/05 06:40:36;;;;;;;7.65;5.75;;;;;;;13.57;92.83;101466.25;5088480;28;20403;-85
2022/10/05 06:43:13;;;;;;;7.90;5.30;;;;;;;13.58;92.71;101467.94;5089704;28;20517;-86
2022/10/05 06:46:05;;;;;;;6.97;5.43;;;;;;;13.57;93.07;101469.75;5088533;28;20040;-86
2022/10/05 06:48:40;;;;;;;7.18;5.43;;;;;;;13.62;92.73;101470.25;5087802;28;20085;-86
2022/10/05 06:51:25;;;;;;;8.80;5.68;;;;;;;13.64;92.84;101470.97;5090146;28;20484;-86
2022/10/05 06:54:06;;;;;;;9.18;5.40;;;;;;;13.67;92.93;101467.25;5088657;28;20050;-86
2022/10/05 06:56:43;;;;;;;7.32;5.65;;;;;;;13.69;92.42;101465.34;5105673;28;20055;-87
2022/10/05 06:59:22;;;;;;;6.53;5.18;;;;;;;13.73;92.65;101472.06;5109914;28;20038;-86
2022/10/05 07:02:05;;;;;;;6.57;5.25;;;;;;;13.75;92.72;101481.56;5109700;28;20020;-86
2022/10/05 07:04:45;;;;;;;6.20;5.57;;;;;;;13.77;92.13;101479.66;5113990;28;20117;-86
2022/10/05 07:07:17;;;;;;;7.43;5.75;;;;;;;13.80;92.15;101470.63;5112972;28;20015;-86
2022/10/05 07:09:54;;;;;;;10.35;5.72;;;;;;;13.84;92.03;101473.88;5113399;28;20028;-86
2022/10/05 07:12:40;;;;;;;8.13;5.72;;;;;;;13.89;92.42;101477.00;5112647;28;20104;-86
2022/10/05 07:15:24;;;;;;;7.53;5.60;;;;;;;13.93;92.06;101471.34;5113489;28;20536;-86
2022/10/05 07:18:24;;;;;;;7.82;5.53;;;;;;;13.94;91.69;101470.38;5111546;28;20015;-86
2022/10/05 07:21:16;;;;;;;7.75;5.88;;;;;;;13.99;91.73;101473.50;5111817;28;20069;-86
2022/10/05 07:23:56;;;;;;;7.10;5.75;;;;;;;14.03;91.93;101474.16;5113000;28;20019;-87
2022/10/05 07:26:29;;;;;;;8.05;5.93;;;;;;;14.04;91.26;101479.31;5113341;27;20050;-86
2022/10/05 07:28:58;;;;;;;7.38;5.80;;;;;;;14.06;91.73;101485.31;5113450;28;20055;-86
2022/10/05 07:31:39;;;;;;;9.02;6.22;;;;;;;14.07;91.01;101480.88;5111247;28;20028;-86
2022/10/05 07:34:24;;;;;;;9.30;6.15;;;;;;;14.14;91.18;101474.13;5113372;28;20020;-87
2022/10/05 07:40:12;;;;;;;9.20;5.72;;;;;;;14.20;90.71;101476.28;5114302;28;20391;-86
2022/10/05 07:42:44;;;;;;;;;;;;;;;14.29;90.94;101475.56;5112825;28;20031;-86
2022/10/05 07:45:18;;;;;;;7.03;5.15;;;;;;;14.31;90.19;101478.06;5112457;28;19912;-85
2022/10/05 07:48:11;;;;;;;7.57;5.45;;;;;;;14.33;90.15;101478.78;5113410;28;20028;-86
2022/10/05 07:50:51;;;;;;;8.73;5.40;;;;;;;14.37;89.90;101483.72;5113452;28;20034;-86
2022/10/05 07:53:23;;;;;;;7.00;5.55;;;;;;;14.41;90.26;101489.66;5111507;28;20020;-86
2022/10/05 07:56:05;;;;;;;7.80;5.57;;;;;;;14.46;90.22;101486.66;5113089;28;20028;-86
2022/10/05 07:58:42;;;;;;;8.27;5.35;;;;;;;14.50;89.62;101483.63;5113476;28;20055;-87
2022/10/05 08:01:21;;;;;;;5.65;5.00;;;;;;;14.51;89.64;101484.47;5112940;28;20028;-86
2022/10/05 08:03:52;;;;;;;5.90;5.03;;;;;;;14.54;89.98;101481.59;5112610;28;20027;-87
2022/10/05 08:06:38;;;;;;;6.47;5.05;;;;;;;14.56;89.73;101477.00;5112036;28;20015;-86
2022/10/05 08:09:13;;;;;;;7.90;5.00;;;;;;;14.58;89.42;101483.84;5112105;28;20047;-86
2022/10/05 08:12:11;;;;;;;7.38;4.82;;;;;;;14.69;89.38;101482.97;5113344;28;20027;-86
2022/10/05 08:14:55;;;;;;;11.52;5.10;;;;;;;14.74;88.74;101478.16;5068790;28;20047;-87
2022/10/05 08:17:50;;;;;;;6.57;4.45;;;;;;;14.79;88.63;101470.66;5114060;28;20051;-85
2022/10/05 08:20:44;;;;;;;7.65;4.80;;;;;;;14.87;88.56;101470.91;5102972;28;20156;-86
2022/10/05 08:23:53;;;;;;;7.53;4.40;;;;;;;14.94;88.63;101458.81;5084065;28;20473;-86
2022/10/05 08:26:49;;;;;;;4.85;4.35;;;;;;;14.95;88.01;101460.50;5071589;28;20048;-85
2022/10/05 08:29:36;;;;;;;5.15;3.70;;;;;;;15.05;88.14;101457.94;5093787;28;20027;-86
2022/10/05 08:32:18;;;;;;;7.18;4.18;;;;;;;15.11;87.46;101451.28;5092839;28;20031;-86
2022/10/05 08:34:50;;;;;;;5.03;4.10;;;;;;;15.12;86.96;101452.94;5092124;28;20024;-86
2022/10/05 08:37:21;;;;;;;6.72;4.45;;;;;;;15.16;86.74;101447.25;5103881;28;20025;-85
2022/10/05 08:39:58;;;;;;;5.50;4.03;;;;;;;15.23;87.06;101445.81;5112174;28;20323;-85
2022/10/05 08:42:49;;;;;;;8.93;4.13;;;;;;;15.31;86.66;101443.34;5109914;28;20032;-86
2022/10/05 08:46:09;;;;;;;5.63;3.83;;;;;;;15.36;86.11;101441.16;5113441;28;20335;-86
2022/10/05 08:49:03;;;;;;;5.20;3.70;;;;;;;15.45;86.09;101444.81;5029220;28;20025;-86
2022/10/05 08:51:54;;;;;;;8.45;3.97;;;;;;;15.44;86.07;101445.78;5097843;27;20342;-86
2022/10/05 08:54:19;;;;;;;6.60;3.88;;;;;;;15.52;85.42;101440.66;5110899;28;20480;-86
2022/10/05 08:57:21;;;;;;;8.10;4.13;;;;;;;15.56;85.66;101443.91;5111073;28;20015;-86
2022/10/05 09:00:02;;;;;;;4.75;3.78;;;;;;;15.58;84.62;101445.47;5111570;28;20036;-86
2022/10/05 09:02:38;;;;;;;6.13;4.00;;;;;;;15.65;84.68;101440.50;5109509;28;20023;-86
2022/10/05 09:05:31;;;;;;;9.32;3.80;;;;;;;15.66;84.37;101431.59;5112085;28;20076;-86
2022/10/05 09:08:29;;;;;;;8.13;3.60;;;;;;;15.70;83.97;101427.69;5112245;28;20076;-86
2022/10/05 09:11:35;;;;;;;4.25;3.38;;;;;;;15.79;84.79;101428.72;5086834;28;20039;-85
2022/10/05 09:14:18;;;;;;;7.90;3.63;;;;;;;15.86;83.78;101427.19;5047506;28;20061;-86
2022/10/05 09:17:16;;;;;;;4.20;3.30;;;;;;;15.91;83.19;101422.31;5107366;28;20061;-85
2022/10/05 09:20:18;;;;;;;5.93;3.28;;;;;;;16.00;83.61;101429.47;5111474;28;20019;-86
2022/10/05 09:22:57;;;;;;;5.30;3.30;;;;;;;16.04;82.81;101425.59;5110599;28;20023;-84
2022/10/05 09:25:41;;;;;;;5.55;3.25;;;;;;;16.06;81.30;101421.00;5109299;28;20072;-86
2022/10/05 09:28:31;;;;;;;6.57;3.10;;;;;;;16.13;82.37;101424.78;5109995;28;20024;-85
2022/10/05 09:31:13;;;;;;;5.03;2.97;;;;;;;16.21;81.60;101427.59;5109182;28;20035;-85
2022/10/05 09:34:16;;;;;;;5.68;3.55;;;;;;;16.29;82.38;101430.41;5110333;28;20024;-86
2022/10/05 09:37:24;;;;;;;6.47;3.33;;;;;;;16.39;82.77;101419.81;5109363;28;20138;-86
2022/10/05 09:40:25;;;;;;;5.40;3.20;;;;;;;16.43;81.56;101421.22;5109879;28;20036;-85
2022/10/05 09:43:20;;;;;;;7.00;3.25;;;;;;;16.47;80.85;101421.81;5111960;27;20099;-86
2022/10/05 09:46:00;;;;;;;7.07;3.30;;;;;;;16.55;81.40;101419.28;5108835;28;20036;-85
2022/10/05 09:48:54;;;;;;;3.60;2.90;;;;;;;16.57;81.56;101414.66;5111225;28;20043;-85
2022/10/05 09:51:19;;;;;;;7.40;3.42;;;;;;;16.59;80.51;101410.06;5110254;28;20024;-85
2022/10/05 09:53:59;;;;;;;9.02;3.25;;;;;;;16.65;80.37;101406.84;5111876;28;20080;-85
2022/10/05 09:56:46;;;;;;;4.30;3.10;;;;;;;16.71;79.81;101405.47;5111493;28;20483;-84
2022/10/05 09:59:11;;;;;;;4.88;2.80;;;;;;;16.68;79.38;101398.63;5109289;28;20023;-85
2022/10/05 10:01:50;;;;;;;4.50;3.30;;;;;;;16.69;79.78;101399.47;5109760;28;20546;-84
2022/10/05 10:04:15;;;;;;;4.80;3.15;;;;;;;16.77;79.61;101396.94;5110516;28;20311;-84
2022/10/05 10:07:16;;;;;;;6.72;3.30;;;;;;;16.79;79.23;101395.81;5109069;28;20019;-85
2022/10/05 10:10:11;;;;;;;5.22;2.95;;;;;;;16.92;80.46;101387.56;5038583;28;20452;-85
2022/10/05 10:13:27;;;;;;;5.45;3.20;;;;;;;16.98;79.47;101383.50;5110549;28;20030;-84
2022/10/05 10:16:18;;;;;;;5.65;2.92;;;;;;;17.07;79.19;101387.97;5056802;28;20037;-84
2022/10/05 10:19:29;;;;;;;4.82;2.97;;;;;;;17.14;78.44;101381.09;5067810;28;20038;-84
2022/10/05 10:22:16;;;;;;;3.85;2.80;;;;;;;17.26;79.11;101376.47;5088750;28;20061;-85
2022/10/05 10:25:00;;;;;;;5.25;3.10;;;;;;;17.38;78.66;101378.81;5089032;28;20020;-84
2022/10/05 10:28:00;;;;;;;4.82;2.65;;;;;;;17.49;78.03;101372.47;5087833;28;20023;-84
2022/10/05 10:30:28;;;;;;;4.97;3.10;;;;;;;17.48;76.43;101365.47;5091817;28;20110;-83
2022/10/05 10:33:14;;;;;;;6.68;3.03;;;;;;;17.49;76.37;101357.34;5089711;28;20168;-84
2022/10/05 10:35:49;;;;;;;10.63;3.13;;;;;;;17.49;76.34;101357.34;5090777;28;20052;-84
2022/10/05 10:38:36;;;;;;;8.52;2.88;;;;;;;17.67;77.90;101356.63;5092081;28;20027;-85
2022/10/05 10:41:27;;;;;;;6.57;2.90;;;;;;;17.74;77.39;101355.88;5095267;28;20044;-84
2022/10/05 10:44:23;;;;;;;10.15;3.17;;;;;;;17.79;76.61;101358.09;5094542;28;20408;-84
2022/10/05 10:47:16;;;;;;;4.40;2.70;;;;;;;17.87;76.10;101350.22;5100581;28;20031;-84
2022/10/05 10:50:00;;;;;;;4.75;2.75;;;;;;;17.90;74.76;101347.25;5115697;28;20019;-83
2022/10/05 10:52:43;;;;;;;8.38;3.03;;;;;;;17.89;76.29;101352.72;5114273;28;20104;-84
2022/10/05 10:55:23;;;;;;;6.57;2.80;;;;;;;17.92;75.12;101345.28;5114129;28;20433;-83
2022/10/05 10:58:30;;;;;;;4.57;2.70;;;;;;;18.02;76.15;101347.91;5114990;28;20369;-85
2022/10/05 11:01:18;;;;;;;8.52;2.60;;;;;;;18.08;74.28;101328.66;5114282;28;20080;-83
2022/10/05 11:03:55;;;;;;;7.45;2.67;;;;;;;18.23;74.04;101329.81;5115586;28;20027;-83
2022/10/05 11:06:33;;;;;;;11.98;2.15;;;;;;;18.41;74.07;101321.78;5113395;28;20031;-83
2022/10/05 11:09:40;;;;;;;9.18;2.50;;;;;;;18.54;73.77;101316.09;5113912;28;20086;-83
2022/10/05 11:12:43;;;;;;;7.90;2.40;;;;;;;18.47;72.43;101324.72;5114241;28;20027;-83
2022/10/05 11:15:39;;;;;;;5.50;2.08;;;;;;;18.55;73.55;101323.94;5112271;28;20031;-83
2022/10/05 11:18:45;;;;;;;9.57;2.22;;;;;;;18.58;74.14;101318.31;5113219;28;20454;-83
2022/10/05 11:21:35;;;;;;;4.47;2.10;;;;;;;18.59;73.55;101329.81;5113585;28;20086;-82
2022/10/05 11:24:10;;;;;;;6.10;2.35;;;;;;;18.52;70.87;101310.94;5111745;28;20487;-84
2022/10/05 11:26:55;;;;;;;11.93;2.28;;;;;;;18.48;71.47;101317.56;5112563;28;20028;-84
2022/10/05 11:29:39;;;;;;;7.07;2.20;;;;;;;18.46;72.56;101311.53;5110728;28;20039;-83
2022/10/05 11:32:32;;;;;;;4.15;1.98;;;;;;;18.46;71.90;101300.88;5112237;28;20035;-83
2022/10/05 11:35:23;;;;;;;8.45;2.00;;;;;;;18.54;73.18;101300.94;5113550;28;20030;-83
2022/10/05 11:38:13;;;;;;;4.72;1.77;;;;;;;18.69;72.65;101299.44;5113801;28;20110;-83
2022/10/05 11:41:18;;;;;;;15.85;2.40;;;;;;;18.78;73.02;101284.31;5113448;28;20024;-83
2022/10/05 11:44:07;;;;;;;9.68;2.67;;;;;;;18.88;71.85;101276.25;5111553;28;20075;-83
2022/10/05 11:46:47;;;;;;;9.68;2.13;;;;;;;18.94;71.26;101276.44;5111656;28;20051;-84
2022/10/05 11:49:18;;;;;;;7.05;1.75;;;;;;;18.95;70.87;101271.94;5113219;28;20019;-83
2022/10/05 11:51:44;;;;;;;12.88;2.50;;;;;;;19.05;69.28;101267.34;5112943;28;20031;-83
2022/10/05 11:54:51;;;;;;;12.25;2.53;;;;;;;19.14;70.85;101261.03;5113490;28;20034;-84
2022/10/05 11:57:27;;;;;;;9.68;2.10;;;;;;;19.25;69.77;101268.78;5083137;28;20051;-84
2022/10/05 12:00:08;;;;;;;17.52;2.63;;;;;;;19.46;69.32;101265.69;5114660;28;20051;-84
2022/10/05 12:02:52;;;;;;;12.45;2.38;;;;;;;19.75;69.58;101245.81;5112268;28;20060;-85
2022/10/05 12:05:41;;;;;;;10.20;2.08;;;;;;;19.85;69.13;101244.66;5112307;28;20020;-85
2022/10/05 12:08:22;;;;;;;6.22;1.58;;;;;;;19.83;67.85;101235.97;5115087;28;20068;-84
2022/10/05 12:11:10;;;;;;;7.05;1.90;;;;;;;19.71;67.02;101226.63;5114485;28;20027;-84
2022/10/05 12:13:56;;;;;;;9.90;2.00;;;;;;;19.69;67.91;101231.28;5112471;28;20091;-85
2022/10/05 12:16:41;;;;;;;9.00;1.60;;;;;;;19.71;68.56;101223.94;5113029;28;20026;-84
2022/10/05 12:19:30;;;;;;;6.55;1.75;;;;;;;19.64;68.74;101225.59;5112236;28;20084;-84
2022/10/05 12:22:31;;;;;;;3.28;1.30;;;;;;;19.51;67.86;101222.50;5093938;28;20028;-85
2022/10/05 12:25:00;;;;;;;4.28;1.75;;;;;;;19.54;67.19;101219.53;5049318;28;20560;-84
2022/10/05 12:27:34;;;;;;;6.95;1.60;;;;;;;19.51;68.00;101215.34;5078811;28;20032;-85
2022/10/05 12:30:28;;;;;;;4.15;1.40;;;;;;;19.63;68.32;101208.75;5090763;28;20038;-84
2022/10/05 12:33:12;;;;;;;8.90;2.10;;;;;;;19.86;65.60;101219.63;5091875;28;20117;-84
2022/10/05 12:35:51;;;;;;;11.23;1.67;;;;;;;20.02;65.62;101206.31;5091877;28;20024;-83
2022/10/05 12:38:24;;;;;;;6.70;1.60;;;;;;;20.19;64.43;101209.81;5091652;28;20512;-83
2022/10/05 12:41:24;;;;;;;15.38;1.80;;;;;;;20.20;64.68;101211.47;5091348;28;20020;-82